Time;durP1;ratioP1;P1;durP2;ratioP2;P2;SDS_P1;SDS_P2;PMS_P1;PMS_P2;Temp;Humidity;BMP_temperature;BMP_pressure;BME280_temperature;BME280_humidity;BME280_pressure;Samples;Min_cycle;Max_cycle;Signal;HPM_P1;HPM_P2
2023/01/01 00:01:39;;;;;;;59.72;42.63;;;28.80;81.70;;;;;;5104636;28;20059;-55
2023/01/01 00:04:09;;;;;;;45.42;32.75;;;28.80;81.70;;;;;;5104740;28;20125;-57
2023/01/01 00:06:35;;;;;;;53.53;37.72;;;28.80;81.80;;;;;;5104705;28;20024;-55
2023/01/01 00:11:46;;;;;;;48.33;36.22;;;28.70;81.70;;;;;;5103729;28;20073;-55
2023/01/01 00:14:13;;;;;;;49.92;34.50;;;28.70;81.70;;;;;;5104257;28;20048;-54
2023/01/01 00:16:40;;;;;;;60.72;43.72;;;28.70;81.60;;;;;;5104866;28;20321;-58
2023/01/01 00:19:06;;;;;;;55.58;43.53;;;28.70;81.70;;;;;;5105006;28;20031;-55
2023/01/01 00:21:34;;;;;;;62.65;47.42;;;28.70;81.70;;;;;;5086339;28;20070;-56
2023/01/01 00:24:01;;;;;;;49.38;38.33;;;28.70;81.80;;;;;;5104331;28;20099;-56
2023/01/01 00:26:28;;;;;;;47.97;36.58;;;28.70;81.70;;;;;;5104301;28;20024;-54
2023/01/01 00:28:54;;;;;;;60.38;45.60;;;28.70;81.80;;;;;;5104214;28;20024;-58
2023/01/01 00:31:21;;;;;;;78.07;53.60;;;28.70;81.80;;;;;;5104049;28;20070;-55
2023/01/01 00:33:53;;;;;;;67.68;50.85;;;28.70;81.80;;;;;;5104641;28;20027;-55
2023/01/01 00:36:22;;;;;;;68.15;50.47;;;28.70;81.60;;;;;;5104473;28;20063;-54
2023/01/01 00:38:48;;;;;;;71.82;50.92;;;28.70;81.70;;;;;;5104615;28;20024;-56
2023/01/01 00:41:16;;;;;;;75.30;51.22;;;28.60;81.50;;;;;;5116435;28;20031;-53
2023/01/01 00:43:42;;;;;;;77.97;55.10;;;28.60;81.50;;;;;;5116797;28;20295;-54
2023/01/01 00:46:10;;;;;;;93.53;66.20;;;28.60;81.50;;;;;;5112821;28;20024;-54
2023/01/01 00:48:37;;;;;;;109.60;78.75;;;28.60;81.60;;;;;;5111711;28;20076;-56
2023/01/01 00:51:04;;;;;;;116.60;79.00;;;28.60;81.70;;;;;;5120769;28;20031;-54
2023/01/01 00:53:31;;;;;;;100.45;68.00;;;28.60;81.40;;;;;;5112930;28;20324;-53
2023/01/01 00:55:58;;;;;;;125.15;93.43;;;28.60;81.40;;;;;;5124719;28;20015;-61
2023/01/01 00:58:25;;;;;;;113.07;79.88;;;28.60;81.50;;;;;;5124003;28;20042;-50
2023/01/01 01:00:53;;;;;;;80.82;57.80;;;28.50;81.30;;;;;;5125209;28;20383;-53
2023/01/01 01:03:29;;;;;;;103.72;71.95;;;28.60;81.40;;;;;;5113781;28;20251;-56
2023/01/01 01:06:02;;;;;;;87.60;59.40;;;28.60;81.50;;;;;;5115021;28;20024;-54
2023/01/01 01:08:32;;;;;;;91.82;64.30;;;28.60;81.60;;;;;;5108266;28;20427;-53
2023/01/01 01:11:11;;;;;;;86.00;58.58;;;28.50;81.60;;;;;;5110615;28;20067;-53
2023/01/01 01:13:39;;;;;;;114.97;80.60;;;28.50;81.60;;;;;;5123154;28;20034;-57
2023/01/01 01:16:30;;;;;;;88.47;64.82;;;28.50;81.50;;;;;;5117719;28;20035;-54
2023/01/01 01:19:00;;;;;;;75.80;51.40;;;28.50;81.60;;;;;;5112944;28;20035;-55
2023/01/01 01:21:29;;;;;;;64.80;46.55;;;28.50;81.60;;;;;;5144556;28;20031;-54
2023/01/01 01:24:01;;;;;;;68.05;38.38;;;28.50;81.70;;;;;;5128063;27;20215;-55
2023/01/01 01:26:49;;;;;;;85.38;51.55;;;28.50;81.70;;;;;;5148204;27;20023;-57
2023/01/01 01:29:16;;;;;;;88.13;56.05;;;28.50;82.10;;;;;;5116002;28;20102;-56
2023/01/01 01:31:46;;;;;;;77.80;52.10;;;28.50;82.10;;;;;;5127493;28;20281;-58
2023/01/01 01:34:14;;;;;;;83.88;52.17;;;28.50;81.90;;;;;;5127523;28;20208;-56
2023/01/01 01:36:41;;;;;;;76.22;45.97;;;28.50;81.90;;;;;;5127644;28;20035;-58
2023/01/01 01:39:11;;;;;;;60.58;37.80;;;28.50;82.10;;;;;;5126620;28;20035;-54
2023/01/01 01:41:39;;;;;;;60.85;38.95;;;28.40;81.90;;;;;;5126283;28;20064;-59
2023/01/01 01:44:43;;;;;;;52.00;34.67;;;28.50;82.10;;;;;;5126853;27;20334;-57
2023/01/01 01:47:18;;;;;;;48.58;31.02;;;28.50;81.90;;;;;;5118865;28;20038;-55
2023/01/01 01:49:46;;;;;;;49.13;29.23;;;28.40;81.90;;;;;;5117467;28;20028;-58
2023/01/01 01:52:14;;;;;;;65.55;29.30;;;28.40;82.00;;;;;;5126730;28;20043;-55
2023/01/01 01:54:41;;;;;;;44.63;27.40;;;28.40;81.90;;;;;;5118794;28;20079;-57
2023/01/01 01:57:11;;;;;;;55.50;28.73;;;28.40;82.00;;;;;;5104404;28;20309;-55
2023/01/01 01:59:42;;;;;;;60.67;34.30;;;28.40;81.90;;;;;;5109050;27;20027;-55
2023/01/01 02:02:17;;;;;;;51.63;27.67;;;28.40;81.90;;;;;;5127164;27;20072;-58
2023/01/01 02:04:43;;;;;;;48.30;28.90;;;28.40;82.10;;;;;;5126127;28;20023;-55
2023/01/01 02:07:13;;;;;;;48.10;30.60;;;28.40;82.50;;;;;;5090456;28;20032;-57
2023/01/01 02:09:40;;;;;;;50.08;31.73;;;28.30;81.80;;;;;;5107053;28;20019;-56
2023/01/01 02:12:06;;;;;;;53.35;34.90;;;28.30;81.70;;;;;;5124950;28;20091;-61
2023/01/01 02:14:33;;;;;;;53.20;34.55;;;28.30;81.80;;;;;;5125241;28;20192;-54
2023/01/01 02:17:08;;;;;;;51.22;37.17;;;28.30;81.50;;;;;;5124966;28;20047;-54
2023/01/01 02:19:47;;;;;;;54.08;35.00;;;28.30;81.40;;;;;;5124948;28;20064;-55
2023/01/01 02:22:15;;;;;;;44.20;29.88;;;28.30;81.50;;;;;;5124854;28;20327;-57
2023/01/01 02:24:56;;;;;;;37.22;24.63;;;28.30;81.60;;;;;;5124952;28;20304;-56
2023/01/01 02:27:43;;;;;;;54.17;34.28;;;28.30;81.40;;;;;;5124788;28;20035;-55
2023/01/01 02:30:11;;;;;;;52.47;35.45;;;28.30;81.70;;;;;;5124886;28;20019;-55
2023/01/01 02:32:45;;;;;;;62.72;44.25;;;28.30;81.30;;;;;;5124647;28;20073;-55
2023/01/01 02:35:37;;;;;;;75.22;57.00;;;28.30;81.20;;;;;;5126302;28;20028;-54
2023/01/01 02:38:16;;;;;;;53.00;33.83;;;28.30;81.10;;;;;;5126782;28;20031;-54
2023/01/01 02:40:49;;;;;;;57.53;45.97;;;28.00;81.20;;;;;;5127243;28;20023;-56
2023/01/01 02:43:15;;;;;;;50.88;32.00;;;27.80;82.00;;;;;;5126947;28;20039;-55
2023/01/01 02:45:42;;;;;;;49.28;23.95;;;27.60;82.60;;;;;;5127544;28;20053;-49
2023/01/01 02:48:34;;;;;;;53.90;23.55;;;27.40;83.20;;;;;;5126056;28;20053;-57
2023/01/01 02:51:23;;;;;;;80.55;49.63;;;27.50;83.30;;;;;;5126596;28;20027;-51
2023/01/01 02:54:10;;;;;;;88.20;64.38;;;27.50;83.00;;;;;;5126033;28;20067;-56
2023/01/01 02:56:41;;;;;;;93.18;68.50;;;27.70;82.80;;;;;;5126294;28;20036;-58
2023/01/01 03:02:35;;;;;;;145.75;121.18;;;27.80;82.40;;;;;;5126166;28;20077;-61
2023/01/01 03:05:20;;;;;;;143.10;121.97;;;27.80;82.40;;;;;;5126639;28;20085;-54
2023/01/01 03:08:13;;;;;;;141.18;111.75;;;27.80;82.20;;;;;;5125935;28;20224;-55
2023/01/01 03:10:54;;;;;;;126.63;111.70;;;27.80;82.20;;;;;;5107641;28;20030;-58
2023/01/01 03:13:54;;;;;;;140.02;117.97;;;27.90;82.30;;;;;;5126259;28;20042;-57
2023/01/01 03:16:33;;;;;;;133.07;115.70;;;27.90;82.10;;;;;;5126154;28;20168;-55
2023/01/01 03:19:23;;;;;;;124.57;111.00;;;27.90;82.00;;;;;;5125888;28;20042;-56
2023/01/01 03:22:01;;;;;;;103.93;90.25;;;27.80;82.00;;;;;;5125627;28;20031;-61
2023/01/01 03:24:38;;;;;;;78.97;66.15;;;27.80;81.80;;;;;;5125912;28;20032;-57
2023/01/01 03:27:16;;;;;;;70.13;54.70;;;27.90;81.70;;;;;;5125762;28;20028;-56
2023/01/01 03:29:46;;;;;;;58.88;46.30;;;27.80;81.60;;;;;;5125865;28;20065;-57
2023/01/01 03:32:20;;;;;;;55.53;40.80;;;27.90;81.60;;;;;;5125636;28;20035;-55
2023/01/01 03:34:52;;;;;;;48.75;31.95;;;27.90;81.70;;;;;;5107443;28;20028;-53
2023/01/01 03:37:25;;;;;;;44.33;28.50;;;27.80;81.40;;;;;;5125541;28;20061;-55
2023/01/01 03:39:55;;;;;;;38.58;22.92;;;27.90;81.60;;;;;;5125892;28;20062;-55
2023/01/01 03:42:32;;;;;;;34.63;19.63;;;27.80;81.40;;;;;;5125250;28;20028;-60
2023/01/01 03:45:37;;;;;;;34.13;16.73;;;27.80;81.40;;;;;;5125554;28;20245;-55
2023/01/01 03:48:04;;;;;;;32.08;14.63;;;27.80;81.50;;;;;;5121152;28;20111;-55
2023/01/01 03:50:41;;;;;;;25.08;12.48;;;27.80;81.50;;;;;;5125312;28;20235;-55
2023/01/01 03:53:21;;;;;;;28.67;12.50;;;27.80;81.60;;;;;;5124981;28;20048;-57
2023/01/01 03:56:07;;;;;;;24.33;11.70;;;27.80;81.60;;;;;;5125947;28;20248;-55
2023/01/01 03:58:46;;;;;;;27.45;11.80;;;27.80;81.60;;;;;;5106998;28;20038;-55
2023/01/01 04:01:39;;;;;;;22.77;12.07;;;27.80;81.50;;;;;;5124953;28;20261;-57
2023/01/01 04:04:07;;;;;;;27.45;13.02;;;27.80;81.40;;;;;;5124870;28;20249;-55
2023/01/01 04:06:34;;;;;;;27.08;11.27;;;27.80;81.40;;;;;;5124672;28;20457;-55
2023/01/01 04:09:02;;;;;;;22.20;11.13;;;27.80;81.40;;;;;;5124518;28;20022;-53
2023/01/01 04:14:32;;;;;;;21.25;10.23;;;27.80;81.30;;;;;;5124583;28;20158;-58
2023/01/01 04:17:00;;;;;;;16.10;8.82;;;27.80;81.30;;;;;;5125107;28;20031;-57
2023/01/01 04:19:27;;;;;;;19.80;8.32;;;27.70;81.10;;;;;;5124974;28;20032;-60
2023/01/01 04:21:54;;;;;;;18.23;8.13;;;27.70;81.00;;;;;;5106552;28;20035;-56
2023/01/01 04:24:22;;;;;;;18.67;7.82;;;27.70;80.80;;;;;;5125401;28;20019;-57
2023/01/01 04:26:50;;;;;;;14.48;7.55;;;27.70;80.70;;;;;;5124592;28;20275;-60
2023/01/01 04:29:17;;;;;;;25.20;7.97;;;27.70;80.60;;;;;;5106880;28;20318;-58
2023/01/01 04:31:44;;;;;;;39.90;8.57;;;27.70;80.60;;;;;;5124874;28;20299;-57
2023/01/01 04:34:11;;;;;;;23.80;7.90;;;27.70;80.50;;;;;;5125182;28;20226;-59
2023/01/01 04:36:37;;;;;;;22.67;7.03;;;27.70;80.50;;;;;;5125206;28;20027;-57
2023/01/01 04:39:05;;;;;;;26.35;7.78;;;27.70;80.50;;;;;;5124590;28;20111;-58
2023/01/01 04:41:32;;;;;;;30.75;7.15;;;27.70;80.50;;;;;;5124392;28;20058;-57
2023/01/01 04:43:59;;;;;;;16.42;6.50;;;27.70;80.40;;;;;;5124934;28;20231;-59
2023/01/01 04:46:26;;;;;;;19.63;6.82;;;27.60;80.30;;;;;;5124507;28;20019;-57
2023/01/01 04:48:52;;;;;;;18.88;6.90;;;27.60;80.30;;;;;;5124817;28;20031;-57
2023/01/01 04:51:21;;;;;;;25.10;7.28;;;27.60;80.30;;;;;;5124883;28;20058;-57
2023/01/01 04:53:47;;;;;;;20.88;6.88;;;27.60;80.40;;;;;;5125021;28;20338;-57
2023/01/01 04:56:17;;;;;;;25.05;7.95;;;27.60;80.40;;;;;;5125014;28;20042;-60
2023/01/01 04:58:45;;;;;;;26.38;7.18;;;27.60;80.50;;;;;;5126661;28;20028;-58
2023/01/01 05:01:18;;;;;;;22.77;7.05;;;27.60;80.50;;;;;;5128818;28;20031;-59
2023/01/01 05:03:45;;;;;;;24.73;8.98;;;27.50;80.50;;;;;;5128595;28;20023;-57
2023/01/01 05:06:13;;;;;;;34.40;13.82;;;27.50;80.50;;;;;;5128533;28;20032;-56
2023/01/01 05:08:41;;;;;;;33.90;14.77;;;27.50;80.50;;;;;;5128078;28;20035;-56
2023/01/01 05:11:13;;;;;;;37.20;19.40;;;27.50;80.40;;;;;;5128249;28;20077;-58
2023/01/01 05:13:42;;;;;;;41.10;23.83;;;27.50;80.50;;;;;;5128234;28;20015;-59
2023/01/01 05:16:12;;;;;;;40.85;26.00;;;27.50;80.50;;;;;;5128185;28;20085;-58
2023/01/01 05:18:39;;;;;;;48.53;27.85;;;27.50;80.70;;;;;;5128048;28;20082;-56
2023/01/01 05:21:14;;;;;;;46.72;28.95;;;27.50;80.80;;;;;;5127940;28;20054;-58
2023/01/01 05:23:42;;;;;;;60.35;35.33;;;27.40;81.20;;;;;;5127781;28;20051;-59
2023/01/01 05:26:19;;;;;;;67.65;40.33;;;27.40;80.80;;;;;;5128466;28;20339;-58
2023/01/01 05:28:47;;;;;;;55.33;38.72;;;27.40;80.80;;;;;;5128001;28;20036;-58
2023/01/01 05:31:16;;;;;;;62.15;36.70;;;27.40;80.90;;;;;;5127664;28;20027;-56
2023/01/01 05:33:43;;;;;;;80.53;45.28;;;27.30;80.90;;;;;;5127663;28;20046;-58
2023/01/01 05:36:23;;;;;;;130.35;79.63;;;27.30;81.00;;;;;;5127852;28;20253;-58
2023/01/01 05:38:50;;;;;;;118.15;65.70;;;27.30;81.10;;;;;;5128104;28;20027;-57
2023/01/01 05:41:18;;;;;;;94.22;51.17;;;27.30;81.20;;;;;;5128348;28;20023;-57
2023/01/01 05:43:45;;;;;;;68.50;37.92;;;27.30;81.20;;;;;;5127818;28;20335;-57
2023/01/01 05:46:30;;;;;;;64.63;34.97;;;27.30;81.20;;;;;;5128059;28;20040;-60
2023/01/01 05:48:56;;;;;;;57.40;34.55;;;27.30;81.20;;;;;;5127185;28;20028;-55
2023/01/01 05:51:26;;;;;;;59.97;32.95;;;27.30;81.20;;;;;;5127605;28;20052;-61
2023/01/01 05:53:57;;;;;;;53.03;31.33;;;27.30;81.30;;;;;;5127351;28;20030;-62
2023/01/01 05:56:24;;;;;;;46.53;29.15;;;27.20;81.30;;;;;;5127260;28;20032;-56
2023/01/01 05:58:51;;;;;;;41.28;26.55;;;27.20;81.20;;;;;;5127499;28;20016;-56
2023/01/01 06:01:21;;;;;;;42.55;25.67;;;27.20;81.20;;;;;;5127895;28;20100;-57
2023/01/01 06:03:48;;;;;;;38.28;23.33;;;27.20;81.10;;;;;;5109012;28;20171;-55
2023/01/01 06:06:20;;;;;;;42.50;22.90;;;27.20;81.10;;;;;;5127084;28;20087;-57
2023/01/01 06:08:58;;;;;;;40.83;22.02;;;27.20;81.20;;;;;;5126644;28;20054;-58
2023/01/01 06:11:25;;;;;;;39.92;22.55;;;27.10;81.10;;;;;;5126048;28;20027;-57
2023/01/01 06:13:53;;;;;;;49.03;22.73;;;27.10;81.10;;;;;;5127087;28;20365;-57
2023/01/01 06:16:22;;;;;;;36.15;21.88;;;27.10;81.30;;;;;;5126912;28;20026;-57
2023/01/01 06:18:49;;;;;;;39.47;22.98;;;27.10;81.40;;;;;;5126927;28;20036;-57
2023/01/01 06:21:18;;;;;;;43.00;24.15;;;27.10;81.50;;;;;;5127079;28;20027;-61
2023/01/01 06:23:45;;;;;;;53.35;25.08;;;27.10;81.50;;;;;;5125679;27;20034;-53
2023/01/01 06:26:18;;;;;;;52.67;23.42;;;27.10;81.80;;;;;;5142917;27;20027;-56
2023/01/01 06:28:46;;;;;;;44.35;21.23;;;27.10;81.80;;;;;;5146912;27;20038;-54
2023/01/01 06:31:14;;;;;;;48.53;19.05;;;27.10;81.70;;;;;;5146728;27;20031;-55
2023/01/01 06:33:42;;;;;;;38.50;18.17;;;27.10;81.60;;;;;;5146717;27;20054;-55
2023/01/01 06:36:11;;;;;;;46.17;19.15;;;27.10;81.50;;;;;;5146759;27;20027;-55
2023/01/01 06:38:40;;;;;;;43.95;17.98;;;27.10;81.50;;;;;;5133614;27;20035;-53
2023/01/01 06:41:10;;;;;;;47.05;16.55;;;27.10;81.40;;;;;;5126194;28;20024;-54
2023/01/01 06:43:37;;;;;;;45.60;17.17;;;27.10;81.40;;;;;;5125978;28;20211;-54
2023/01/01 06:46:05;;;;;;;41.05;17.77;;;27.10;81.40;;;;;;5126043;28;20032;-52
2023/01/01 06:48:34;;;;;;;46.78;17.02;;;27.10;81.40;;;;;;5125955;28;20334;-54
2023/01/01 06:51:21;;;;;;;47.50;15.88;;;27.10;81.30;;;;;;5125665;28;20039;-51
2023/01/01 06:53:48;;;;;;;41.28;14.57;;;27.10;81.20;;;;;;5118866;28;20032;-56
2023/01/01 06:56:16;;;;;;;48.95;14.20;;;27.10;81.10;;;;;;5105602;28;20036;-50
2023/01/01 06:58:42;;;;;;;47.47;13.65;;;27.00;81.00;;;;;;5105158;28;20042;-55
2023/01/01 07:01:12;;;;;;;42.25;14.55;;;27.00;80.90;;;;;;5105523;28;20024;-54
2023/01/01 07:03:39;;;;;;;41.25;12.95;;;27.00;80.90;;;;;;5105299;28;20016;-55
2023/01/01 07:06:07;;;;;;;37.15;13.15;;;27.00;81.30;;;;;;5105376;28;20377;-55
2023/01/01 07:08:35;;;;;;;39.50;12.85;;;27.00;80.80;;;;;;5105190;28;20351;-55
2023/01/01 07:11:02;;;;;;;51.97;25.50;;;27.00;80.80;;;;;;5105060;28;20065;-55
2023/01/01 07:13:30;;;;;;;69.03;45.60;;;27.00;80.80;;;;;;5116481;28;20040;-57
2023/01/01 07:15:57;;;;;;;49.63;30.83;;;26.90;80.60;;;;;;5105090;28;20026;-55
2023/01/01 07:18:24;;;;;;;41.25;23.58;;;26.90;80.60;;;;;;5104977;28;20336;-56
2023/01/01 07:20:54;;;;;;;33.75;17.13;;;26.90;80.30;;;;;;5104804;28;20018;-55
2023/01/01 07:23:20;;;;;;;30.25;14.48;;;26.90;80.20;;;;;;5104990;28;20028;-58
2023/01/01 07:25:49;;;;;;;23.63;11.55;;;26.90;80.10;;;;;;5104841;28;20031;-55
2023/01/01 07:28:16;;;;;;;17.13;9.77;;;26.90;80.10;;;;;;5104879;28;20213;-54
2023/01/01 07:30:43;;;;;;;18.33;8.48;;;26.90;80.20;;;;;;5104647;28;20032;-55
2023/01/01 07:33:15;;;;;;;18.20;8.20;;;26.90;80.20;;;;;;5104637;28;20023;-56
2023/01/01 07:35:43;;;;;;;18.25;7.78;;;26.90;80.20;;;;;;5104654;28;20095;-55
2023/01/01 07:38:10;;;;;;;22.20;8.75;;;26.90;80.10;;;;;;5104536;28;20088;-54
2023/01/01 07:40:37;;;;;;;16.38;7.90;;;26.90;80.10;;;;;;5104428;28;20032;-51
2023/01/01 07:43:03;;;;;;;18.05;7.00;;;26.90;80.10;;;;;;5104548;28;20024;-55
2023/01/01 07:45:30;;;;;;;15.70;6.47;;;26.90;80.10;;;;;;5104399;28;20028;-55
2023/01/01 07:47:58;;;;;;;14.65;6.43;;;26.80;79.90;;;;;;5104744;28;20050;-54
2023/01/01 07:50:30;;;;;;;13.48;5.68;;;26.80;79.90;;;;;;5104351;28;20315;-54
2023/01/01 07:52:56;;;;;;;12.17;5.60;;;26.80;80.20;;;;;;5104283;28;20044;-54
2023/01/01 07:55:23;;;;;;;11.90;5.25;;;26.80;79.60;;;;;;5104146;28;20073;-54
2023/01/01 07:57:50;;;;;;;10.95;4.90;;;26.80;79.20;;;;;;5104794;28;20041;-53
2023/01/01 08:00:19;;;;;;;16.63;5.30;;;26.80;78.90;;;;;;5104208;28;20032;-54
2023/01/01 08:02:46;;;;;;;9.43;4.70;;;26.80;78.70;;;;;;5104533;28;20039;-53
2023/01/01 08:05:12;;;;;;;8.48;4.50;;;26.80;78.60;;;;;;5104203;28;20028;-53
2023/01/01 08:07:39;;;;;;;15.27;4.70;;;26.80;78.40;;;;;;5104853;28;20024;-54
2023/01/01 08:10:06;;;;;;;11.55;4.30;;;26.80;78.10;;;;;;5104104;28;20028;-54
2023/01/01 08:12:33;;;;;;;7.82;4.30;;;26.90;78.10;;;;;;5104530;28;20027;-55
2023/01/01 08:15:00;;;;;;;9.25;5.10;;;26.90;77.60;;;;;;5104233;28;20040;-55
2023/01/01 08:17:27;;;;;;;17.00;9.25;;;26.90;77.30;;;;;;5104360;28;20069;-53
2023/01/01 08:19:54;;;;;;;26.48;13.55;;;26.80;77.20;;;;;;5103786;28;20091;-55
2023/01/01 08:22:20;;;;;;;20.70;12.80;;;26.80;77.20;;;;;;5104336;28;20201;-54
2023/01/01 08:24:47;;;;;;;24.38;9.68;;;26.80;77.40;;;;;;5103757;28;20086;-54
2023/01/01 08:27:15;;;;;;;23.25;7.40;;;26.80;77.50;;;;;;5103858;28;20276;-55
2023/01/01 08:29:42;;;;;;;21.58;6.43;;;26.80;77.60;;;;;;5103932;28;20036;-54
2023/01/01 08:32:09;;;;;;;12.35;5.65;;;26.80;77.80;;;;;;5104195;28;20077;-55
2023/01/01 08:34:36;;;;;;;17.55;5.85;;;26.80;78.00;;;;;;5107513;28;20027;-54
2023/01/01 08:37:03;;;;;;;12.55;5.50;;;26.70;78.00;;;;;;5108605;28;20050;-55
2023/01/01 08:39:30;;;;;;;14.05;5.63;;;26.70;78.00;;;;;;5107999;28;20239;-57
2023/01/01 08:41:56;;;;;;;19.65;6.20;;;26.70;78.50;;;;;;5108343;28;20024;-54
2023/01/01 08:44:23;;;;;;;18.02;6.43;;;26.70;78.30;;;;;;5108050;28;20027;-54
2023/01/01 08:46:52;;;;;;;17.42;6.43;;;26.70;78.50;;;;;;5108016;28;20083;-56
2023/01/01 08:49:19;;;;;;;16.85;6.20;;;26.70;78.70;;;;;;5107608;28;20077;-54
2023/01/01 08:51:45;;;;;;;20.08;6.53;;;26.70;78.90;;;;;;5107836;28;20048;-54
2023/01/01 08:54:12;;;;;;;16.55;6.07;;;26.60;78.90;;;;;;5107711;28;20040;-57
2023/01/01 08:56:38;;;;;;;13.38;6.10;;;26.60;79.00;;;;;;5108050;28;20350;-53
2023/01/01 08:59:05;;;;;;;18.58;5.88;;;26.60;79.00;;;;;;5110001;28;20031;-53
2023/01/01 09:01:32;;;;;;;16.35;6.13;;;26.60;79.10;;;;;;5128038;28;20055;-52
2023/01/01 09:03:58;;;;;;;16.20;6.50;;;26.60;79.30;;;;;;5128146;28;20024;-55
2023/01/01 09:06:25;;;;;;;16.77;6.30;;;26.50;79.30;;;;;;5128238;28;20039;-56
2023/01/01 09:08:51;;;;;;;15.13;6.55;;;26.50;79.30;;;;;;5127957;28;20050;-56
2023/01/01 09:11:26;;;;;;;17.27;6.20;;;26.50;79.60;;;;;;5127819;28;20030;-55
2023/01/01 09:13:54;;;;;;;14.95;6.47;;;26.50;79.70;;;;;;5127971;28;20039;-54
2023/01/01 09:16:21;;;;;;;17.30;6.78;;;26.50;79.90;;;;;;5127883;28;20016;-54
2023/01/01 09:18:48;;;;;;;19.58;7.20;;;26.50;80.20;;;;;;5127591;28;20050;-56
2023/01/01 09:21:15;;;;;;;15.82;6.65;;;26.40;80.50;;;;;;5127851;28;20034;-54
2023/01/01 09:23:41;;;;;;;14.13;7.43;;;26.40;80.70;;;;;;5127466;28;20035;-55
2023/01/01 09:26:09;;;;;;;17.15;8.55;;;26.30;80.90;;;;;;5127635;28;20051;-56
2023/01/01 09:28:36;;;;;;;16.95;8.98;;;26.30;81.20;;;;;;5127628;28;20125;-55
2023/01/01 09:31:05;;;;;;;15.50;8.70;;;26.30;81.40;;;;;;5127513;28;20024;-54
2023/01/01 09:33:32;;;;;;;17.10;9.95;;;26.30;81.50;;;;;;5127434;28;20059;-55
2023/01/01 09:36:32;;;;;;;19.88;9.40;;;26.30;81.70;;;;;;5127571;28;20096;-55
2023/01/01 09:38:59;;;;;;;13.88;8.32;;;26.20;81.80;;;;;;5072351;28;20108;-54
2023/01/01 09:41:41;;;;;;;13.75;8.60;;;26.20;82.00;;;;;;5127461;28;20072;-54
2023/01/01 09:44:26;;;;;;;14.70;7.87;;;26.20;82.10;;;;;;5127228;28;20095;-54
2023/01/01 09:46:54;;;;;;;16.58;8.50;;;26.10;82.20;;;;;;5127261;28;20038;-55
2023/01/01 09:49:48;;;;;;;12.38;7.60;;;26.10;82.40;;;;;;5127218;28;20134;-54
2023/01/01 09:52:16;;;;;;;14.98;7.90;;;26.10;82.30;;;;;;5123251;28;20042;-56
2023/01/01 09:55:02;;;;;;;13.60;7.53;;;26.10;82.40;;;;;;5127015;28;20035;-54
2023/01/01 09:57:31;;;;;;;12.43;7.35;;;26.10;82.40;;;;;;5126667;28;20070;-54
2023/01/01 09:59:59;;;;;;;15.02;7.28;;;26.10;82.50;;;;;;5127007;28;20270;-53
2023/01/01 10:03:01;;;;;;;17.58;7.28;;;26.00;82.60;;;;;;5127215;28;20237;-54
2023/01/01 10:06:00;;;;;;;12.70;7.18;;;26.00;82.90;;;;;;5127000;28;20028;-53
2023/01/01 10:08:40;;;;;;;19.30;7.82;;;26.10;83.10;;;;;;5126815;28;20031;-54
2023/01/01 10:11:27;;;;;;;15.63;7.18;;;26.00;83.00;;;;;;5126667;28;20027;-55
2023/01/01 10:13:56;;;;;;;17.05;7.47;;;26.00;83.10;;;;;;5075655;28;20098;-54
2023/01/01 10:16:44;;;;;;;19.02;8.02;;;26.00;83.20;;;;;;5126737;28;20061;-54
2023/01/01 10:19:33;;;;;;;13.48;6.75;;;26.00;83.30;;;;;;5126714;28;20320;-54
2023/01/01 10:22:06;;;;;;;15.85;7.75;;;26.00;83.50;;;;;;5111803;28;20039;-55
2023/01/01 10:24:42;;;;;;;;;;;26.00;83.60;;;;;;5127042;28;20033;-54
2023/01/01 10:27:33;;;;;;;15.57;8.18;;;25.90;83.70;;;;;;5126744;28;19911;-54
2023/01/01 10:30:04;;;;;;;25.85;9.80;;;26.00;83.90;;;;;;5126369;28;20087;-55
2023/01/01 10:32:35;;;;;;;25.35;9.95;;;25.90;83.90;;;;;;5126710;28;20036;-54
2023/01/01 10:35:11;;;;;;;18.50;9.82;;;25.90;84.00;;;;;;5126267;28;20022;-54
2023/01/01 10:37:38;;;;;;;22.70;10.27;;;25.90;84.10;;;;;;5126777;28;20050;-54
2023/01/01 10:40:20;;;;;;;21.27;10.27;;;25.80;84.00;;;;;;5126149;28;20334;-54
2023/01/01 10:42:49;;;;;;;20.67;9.73;;;25.80;84.10;;;;;;5125951;28;20031;-55
2023/01/01 10:45:18;;;;;;;23.33;10.18;;;25.80;84.20;;;;;;5126259;28;20023;-54
2023/01/01 10:48:11;;;;;;;25.33;10.18;;;25.80;84.20;;;;;;5126487;28;20035;-56
2023/01/01 10:50:47;;;;;;;22.77;9.20;;;25.80;84.20;;;;;;5125397;28;20204;-54
2023/01/01 10:53:32;;;;;;;22.98;8.93;;;25.80;84.10;;;;;;5119193;28;20221;-54
2023/01/01 10:56:06;;;;;;;21.08;8.57;;;25.80;84.20;;;;;;5125330;28;20051;-55
2023/01/01 10:58:51;;;;;;;17.85;8.32;;;25.80;84.20;;;;;;5125573;28;20043;-55
2023/01/01 11:01:17;;;;;;;21.02;7.15;;;25.70;84.10;;;;;;5125817;28;20023;-54
2023/01/01 11:03:58;;;;;;;14.98;7.47;;;25.70;84.10;;;;;;5125601;28;20320;-55
2023/01/01 11:06:27;;;;;;;31.80;11.07;;;25.70;84.20;;;;;;5125885;28;20035;-57
2023/01/01 11:09:02;;;;;;;21.27;9.90;;;25.70;84.20;;;;;;5125455;28;20285;-54
2023/01/01 11:11:35;;;;;;;17.30;7.60;;;25.70;84.20;;;;;;5125798;28;20238;-53
2023/01/01 11:14:04;;;;;;;17.63;6.72;;;25.70;84.10;;;;;;5125523;28;20032;-56
2023/01/01 11:16:32;;;;;;;14.02;6.15;;;25.70;84.20;;;;;;5125459;28;20054;-56
2023/01/01 11:19:07;;;;;;;11.75;5.63;;;25.60;84.00;;;;;;5125302;28;20320;-54
2023/01/01 11:21:34;;;;;;;12.95;5.88;;;25.60;83.90;;;;;;5125495;28;20028;-54
2023/01/01 11:24:18;;;;;;;11.15;5.07;;;25.60;83.90;;;;;;5125613;28;20020;-55
2023/01/01 11:26:45;;;;;;;18.42;5.53;;;25.60;83.90;;;;;;5125440;28;20019;-56
2023/01/01 11:29:21;;;;;;;12.68;5.28;;;25.70;83.90;;;;;;5125214;28;20046;-57
2023/01/01 11:31:48;;;;;;;17.80;5.25;;;25.70;83.70;;;;;;5130463;27;20253;-54
2023/01/01 11:34:38;;;;;;;17.33;5.10;;;25.70;83.70;;;;;;5145624;27;20027;-54
2023/01/01 11:37:16;;;;;;;17.88;5.38;;;25.70;83.50;;;;;;5145904;27;20098;-55
2023/01/01 11:39:45;;;;;;;20.05;5.47;;;25.70;83.30;;;;;;5145477;27;20054;-56
2023/01/01 11:42:25;;;;;;;18.92;5.68;;;25.80;83.40;;;;;;5145562;27;20030;-53
2023/01/01 11:44:59;;;;;;;16.77;5.43;;;25.70;83.20;;;;;;5145362;27;20035;-55
2023/01/01 11:47:37;;;;;;;13.32;4.53;;;25.80;83.20;;;;;;5145882;27;20242;-55
2023/01/01 11:50:16;;;;;;;14.00;4.90;;;25.80;83.00;;;;;;5145261;27;20299;-53
2023/01/01 11:52:48;;;;;;;17.15;5.25;;;25.80;83.10;;;;;;5124299;28;20047;-53
2023/01/01 11:55:18;;;;;;;12.60;5.13;;;25.90;83.00;;;;;;5124703;28;20027;-54
2023/01/01 11:58:10;;;;;;;12.10;5.30;;;25.90;82.70;;;;;;5125198;28;20243;-57
2023/01/01 12:00:37;;;;;;;18.60;5.72;;;26.00;82.70;;;;;;5077261;28;20368;-54
2023/01/01 12:03:23;;;;;;;15.60;5.35;;;25.90;82.50;;;;;;5124008;28;20304;-54
2023/01/01 12:05:54;;;;;;;13.15;5.07;;;26.00;82.60;;;;;;5124516;28;20039;-53
2023/01/01 12:08:37;;;;;;;21.10;5.38;;;26.00;82.50;;;;;;5123761;28;20031;-53
2023/01/01 12:11:12;;;;;;;17.38;6.03;;;26.10;82.40;;;;;;5124820;28;20042;-53
2023/01/01 12:13:49;;;;;;;14.77;4.72;;;26.20;82.20;;;;;;5124573;28;20032;-54
2023/01/01 12:16:45;;;;;;;18.17;5.68;;;26.20;82.00;;;;;;5124441;28;20036;-52
2023/01/01 12:19:22;;;;;;;13.02;4.82;;;26.30;81.60;;;;;;5103068;28;20047;-56
2023/01/01 12:21:53;;;;;;;13.07;5.18;;;26.30;81.50;;;;;;5124737;28;20036;-55
2023/01/01 12:24:20;;;;;;;10.55;5.10;;;26.30;81.30;;;;;;5124610;28;20034;-55
2023/01/01 12:26:59;;;;;;;18.00;4.57;;;26.40;81.00;;;;;;5124176;28;20311;-51
2023/01/01 12:29:48;;;;;;;13.38;4.35;;;26.50;81.40;;;;;;5124549;28;20030;-56
2023/01/01 12:32:26;;;;;;;11.68;4.18;;;26.50;80.70;;;;;;5124611;28;20296;-54
2023/01/01 12:35:05;;;;;;;11.82;4.47;;;26.60;80.90;;;;;;5124309;28;20027;-55
2023/01/01 12:37:36;;;;;;;8.93;3.70;;;26.60;80.90;;;;;;5124569;28;20028;-56
2023/01/01 12:40:32;;;;;;;14.73;4.25;;;26.60;80.50;;;;;;5140545;28;20026;-56
2023/01/01 12:43:00;;;;;;;14.18;4.20;;;26.70;80.50;;;;;;5145303;28;20040;-54
2023/01/01 12:46:03;;;;;;;12.20;3.53;;;26.70;80.60;;;;;;5144745;28;20030;-55
2023/01/01 12:48:48;;;;;;;11.93;3.80;;;26.80;80.70;;;;;;5145012;28;20035;-57
2023/01/01 12:51:39;;;;;;;8.35;4.10;;;26.90;80.60;;;;;;5144541;27;20031;-56
2023/01/01 12:54:27;;;;;;;9.27;3.55;;;26.90;80.50;;;;;;5144764;28;20035;-55
2023/01/01 12:57:21;;;;;;;11.65;3.75;;;26.90;80.60;;;;;;5144996;28;20091;-58
2023/01/01 12:59:51;;;;;;;9.52;3.80;;;26.90;80.80;;;;;;5114737;28;20032;-55
2023/01/01 13:02:24;;;;;;;9.60;3.58;;;27.00;80.80;;;;;;5124496;28;20051;-55
2023/01/01 13:04:55;;;;;;;12.95;4.20;;;27.00;80.60;;;;;;5124009;28;20028;-54
2023/01/01 13:07:37;;;;;;;6.18;4.03;;;27.00;80.50;;;;;;5124370;28;20028;-53